createdAt,value
2018-09-06T00:00:04.972Z,81.24
2018-09-06T00:01:04.961Z,81.45
2018-09-06T00:02:04.949Z,80.94
2018-09-06T00:03:04.940Z,80.94
2018-09-06T00:04:04.965Z,81.35
2018-09-06T00:05:04.946Z,80.84
2018-09-06T00:06:04.908Z,80.10
2018-09-06T00:07:04.898Z,80.24
2018-09-06T00:08:04.890Z,80.24
2018-09-06T00:09:04.875Z,80.13
2018-09-06T00:10:04.908Z,79.93
2018-09-06T00:11:04.854Z,80.44
2018-09-06T00:12:04.843Z,79.83
2018-09-06T00:13:04.837Z,80.04
2018-09-06T00:14:04.822Z,80.04
2018-09-06T00:15:04.826Z,79.93
2018-09-06T00:16:04.837Z,81.15
2018-09-06T00:17:04.847Z,80.24
2018-09-06T00:18:04.780Z,80.13
2018-09-06T00:19:04.770Z,80.33
2018-09-06T00:20:04.772Z,79.83
2018-09-06T00:21:04.748Z,79.90
2018-09-06T00:22:04.738Z,80.13
2018-09-06T00:23:04.746Z,80.13
2018-09-06T00:24:04.733Z,80.04
2018-09-06T00:25:04.759Z,80.13
2018-09-06T00:26:04.695Z,80.24
2018-09-06T00:27:04.683Z,80.04
2018-09-06T00:28:04.724Z,80.04
2018-09-06T00:29:04.663Z,80.13
2018-09-06T00:30:04.654Z,80.04
2018-09-06T00:31:04.751Z,80.24
2018-09-06T00:32:04.629Z,80.24
2018-09-06T00:33:04.620Z,80.13
2018-09-06T00:34:04.617Z,80.20
2018-09-06T00:35:04.599Z,79.63
2018-09-06T00:36:04.602Z,79.93
2018-09-06T00:37:04.593Z,80.04
2018-09-06T00:38:04.567Z,80.54
2018-09-06T00:39:04.557Z,80.24
2018-09-06T00:40:04.546Z,80.64
2018-09-06T00:41:04.549Z,80.13
2018-09-06T00:42:04.525Z,80.88
2018-09-06T00:43:04.545Z,80.62
2018-09-06T00:44:04.504Z,81.59
2018-09-06T00:45:04.491Z,81.02
2018-09-06T00:46:04.495Z,81.52
2018-09-06T00:47:04.472Z,81.67
2018-09-06T00:48:04.458Z,82.37
2018-09-06T00:49:04.475Z,83.22
2018-09-06T00:50:04.436Z,83.12
2018-09-06T00:51:04.442Z,83.96
2018-09-06T00:52:04.416Z,85.42
2018-09-06T00:53:04.405Z,85.56
2018-09-06T00:54:04.393Z,86.67
2018-09-06T00:55:04.407Z,87.32
2018-09-06T00:56:04.389Z,87.93
2018-09-06T00:57:04.364Z,88.98
2018-09-06T00:58:04.353Z,88.98
2018-09-06T00:59:04.343Z,89.39
2018-09-06T01:00:04.333Z,90.30
2018-09-06T01:01:04.353Z,88.78
2018-09-06T01:02:04.333Z,88.68
2018-09-06T01:03:04.295Z,89.89
2018-09-06T01:04:04.290Z,89.12
2018-09-06T01:05:04.275Z,89.43
2018-09-06T01:06:04.278Z,90.24
2018-09-06T01:07:04.277Z,90.03
2018-09-06T01:08:04.254Z,90.64
2018-09-06T01:09:04.258Z,90.30
2018-09-06T01:10:04.221Z,89.24
2018-09-06T01:11:04.222Z,88.53
2018-09-06T01:12:04.198Z,87.88
2018-09-06T01:13:04.187Z,86.83
2018-09-06T01:14:04.174Z,86.22
2018-09-06T01:15:04.183Z,85.93
2018-09-06T01:16:04.188Z,85.48
2018-09-06T01:17:04.145Z,84.53
2018-09-06T01:18:04.132Z,83.88
2018-09-06T01:19:04.123Z,83.58
2018-09-06T01:20:04.129Z,82.43
2018-09-06T01:21:04.151Z,81.73
2018-09-06T01:22:04.102Z,81.62
2018-09-06T01:23:04.079Z,81.48
2018-09-06T01:24:04.067Z,81.73
2018-09-06T01:25:04.061Z,81.52
2018-09-06T01:26:04.044Z,81.18
2018-09-06T01:27:04.064Z,81.32
2018-09-06T01:28:04.138Z,81.82
2018-09-06T01:29:04.013Z,81.42
2018-09-06T01:30:04.023Z,81.02
2018-09-06T01:31:04.016Z,81.18
2018-09-06T01:32:03.996Z,81.62
2018-09-06T01:33:03.969Z,81.32
2018-09-06T01:34:03.978Z,81.02
2018-09-06T01:35:03.947Z,80.47
2018-09-06T01:36:03.937Z,79.97
2018-09-06T01:37:03.942Z,80.88
2018-09-06T01:38:03.916Z,80.07
2018-09-06T01:39:03.925Z,80.07
2018-09-06T01:40:03.895Z,80.58
2018-09-06T01:41:03.883Z,80.68
2018-09-06T01:42:03.888Z,80.27
2018-09-06T01:43:03.903Z,80.98
2018-09-06T01:44:03.850Z,80.68
2018-09-06T01:45:03.875Z,80.47
2018-09-06T01:46:03.835Z,81.68
2018-09-06T01:47:03.834Z,82.13
2018-09-06T01:48:03.807Z,82.93
2018-09-06T01:49:03.833Z,83.34
2018-09-06T01:50:03.785Z,84.09
2018-09-06T01:51:03.802Z,84.43
2018-09-06T01:52:03.779Z,84.93
2018-09-06T01:53:03.752Z,85.78
2018-09-06T01:54:03.747Z,85.68
2018-09-06T01:55:03.730Z,86.69
2018-09-06T01:56:03.720Z,86.53
2018-09-06T01:57:03.755Z,87.38
2018-09-06T01:58:03.699Z,89.20
2018-09-06T01:59:03.688Z,89.10
2018-09-06T02:00:03.676Z,89.34
2018-09-06T02:01:03.667Z,88.84
2018-09-06T02:02:03.684Z,89.85
2018-09-06T02:03:03.657Z,90.30
2018-09-06T02:04:03.632Z,90.30
2018-09-06T02:05:03.648Z,90.20
2018-09-06T02:06:03.611Z,90.84
2018-09-06T02:07:03.601Z,91.15
2018-09-06T02:08:03.603Z,90.84
2018-09-06T02:09:03.594Z,92.21
2018-09-06T02:10:03.587Z,91.90
2018-09-06T02:11:03.561Z,92.71
2018-09-06T02:12:03.548Z,92.82
2018-09-06T02:13:03.549Z,93.02
2018-09-06T02:14:03.525Z,93.22
2018-09-06T02:15:03.513Z,93.22
2018-09-06T02:16:03.534Z,93.26
2018-09-06T02:17:03.495Z,93.52
2018-09-06T02:18:03.496Z,93.87
2018-09-06T02:19:03.469Z,93.77
2018-09-06T02:20:03.459Z,93.57
2018-09-06T02:21:03.448Z,94.58
2018-09-06T02:22:03.469Z,94.27
2018-09-06T02:23:03.442Z,94.18
2018-09-06T02:24:03.415Z,94.07
2018-09-06T02:25:03.405Z,94.58
2018-09-06T02:26:03.395Z,94.78
2018-09-06T02:27:03.381Z,95.19
2018-09-06T02:28:03.616Z,94.98
2018-09-06T02:29:03.362Z,94.93
2018-09-06T02:30:03.350Z,94.77
2018-09-06T02:31:03.377Z,94.62
2018-09-06T02:32:03.330Z,95.43
2018-09-06T02:33:03.337Z,95.84
2018-09-06T02:34:03.349Z,95.58
2018-09-06T02:35:03.296Z,96.09
2018-09-06T02:36:03.285Z,95.68
2018-09-06T02:37:03.277Z,96.09
2018-09-06T02:38:03.278Z,96.19
2018-09-06T02:39:03.254Z,96.90
2018-09-06T02:40:03.260Z,96.30
2018-09-06T02:41:03.233Z,96.19
2018-09-06T02:42:03.220Z,96.64
2018-09-06T02:43:03.228Z,96.14
2018-09-06T02:44:03.199Z,96.75
2018-09-06T02:45:03.190Z,97.31
2018-09-06T02:46:03.203Z,97.11
2018-09-06T02:47:03.168Z,97.41
2018-09-06T02:48:03.171Z,97.41
2018-09-06T02:49:03.147Z,97.15
2018-09-06T02:50:03.144Z,97.41
2018-09-06T02:51:03.128Z,97.05
2018-09-06T02:52:03.135Z,97.15
2018-09-06T02:53:03.121Z,96.64
2018-09-06T02:54:03.219Z,96.64
2018-09-06T02:55:03.085Z,97.35
2018-09-06T02:56:03.071Z,96.84
2018-09-06T02:57:03.061Z,97.15
2018-09-06T02:58:03.100Z,96.95
2018-09-06T02:59:03.039Z,97.09
2018-09-06T03:00:03.030Z,96.99
2018-09-06T03:01:03.017Z,97.40
2018-09-06T03:02:03.008Z,97.25
2018-09-06T03:03:03.009Z,97.60
2018-09-06T03:04:03.007Z,96.99
2018-09-06T03:05:02.975Z,97.30
2018-09-06T03:06:02.965Z,97.09
2018-09-06T03:07:02.995Z,97.44
2018-09-06T03:08:02.957Z,97.55
2018-09-06T03:09:02.931Z,97.55
2018-09-06T03:10:03.184Z,97.34
2018-09-06T03:11:02.923Z,97.34
2018-09-06T03:12:02.899Z,97.04
2018-09-06T03:13:02.940Z,97.29
2018-09-06T03:14:02.891Z,97.44
2018-09-06T03:15:02.865Z,97.44
2018-09-06T03:16:02.898Z,97.44
2018-09-06T03:17:02.844Z,97.85
2018-09-06T03:18:02.838Z,97.75
2018-09-06T03:19:02.837Z,98.05
2018-09-06T03:20:02.811Z,97.96
2018-09-06T03:21:02.833Z,98.05
2018-09-06T03:22:02.822Z,98.05
2018-09-06T03:23:02.844Z,98.36
2018-09-06T03:24:02.780Z,98.26
2018-09-06T03:25:02.756Z,98.56
2018-09-06T03:26:02.841Z,98.16
2018-09-06T03:27:02.774Z,98.16
2018-09-06T03:28:02.729Z,98.20
2018-09-06T03:29:02.748Z,98.00
2018-09-06T03:30:02.705Z,98.20
2018-09-06T03:31:02.690Z,98.50
2018-09-06T03:32:02.682Z,97.80
2018-09-06T03:33:02.667Z,97.89
2018-09-06T03:34:02.714Z,98.10
2018-09-06T03:35:02.647Z,97.89
2018-09-06T03:36:02.661Z,97.89
2018-09-06T03:37:02.658Z,98.30
2018-09-06T03:38:02.616Z,98.25
2018-09-06T03:39:02.620Z,97.94
2018-09-06T03:40:02.611Z,97.84
2018-09-06T03:41:02.582Z,98.45
2018-09-06T03:42:02.571Z,98.75
2018-09-06T03:43:02.560Z,98.45
2018-09-06T03:44:02.562Z,98.45
2018-09-06T03:45:02.538Z,98.41
2018-09-06T03:46:02.552Z,98.61
2018-09-06T03:47:02.518Z,98.50
2018-09-06T03:48:02.506Z,98.91
2018-09-06T03:49:02.512Z,98.50
2018-09-06T03:50:02.541Z,98.75
2018-09-06T03:51:02.473Z,98.86
2018-09-06T03:52:02.572Z,98.81
2018-09-06T03:53:02.450Z,98.91
2018-09-06T03:54:02.459Z,98.71
2018-09-06T03:55:02.503Z,98.81
2018-09-06T03:56:02.422Z,99.02
2018-09-06T03:57:02.407Z,98.81
2018-09-06T03:58:02.431Z,98.77
2018-09-06T03:59:02.398Z,99.02
2018-09-06T04:00:02.377Z,99.32
2018-09-06T04:01:02.395Z,99.48
2018-09-06T04:02:02.356Z,99.13
2018-09-06T04:03:02.344Z,99.33
2018-09-06T04:04:02.377Z,99.33
2018-09-06T04:05:02.321Z,99.13
2018-09-06T04:06:02.319Z,99.22
2018-09-06T04:07:02.300Z,98.92
2018-09-06T04:08:02.303Z,99.02
2018-09-06T04:09:02.293Z,98.82
2018-09-06T04:10:02.277Z,98.88
2018-09-06T04:11:02.256Z,99.08
2018-09-06T04:12:02.249Z,98.97
2018-09-06T04:13:02.238Z,98.32
2018-09-06T04:14:02.239Z,98.12
2018-09-06T04:15:02.214Z,97.61
2018-09-06T04:16:02.220Z,97.31
2018-09-06T04:17:02.190Z,96.60
2018-09-06T04:18:02.178Z,95.29
2018-09-06T04:19:02.183Z,93.77
2018-09-06T04:20:02.160Z,92.71
2018-09-06T04:21:02.146Z,93.02
2018-09-06T04:22:02.156Z,92.41
2018-09-06T04:23:02.148Z,92.10
2018-09-06T04:24:02.176Z,91.30
2018-09-06T04:25:02.104Z,90.89
2018-09-06T04:26:02.095Z,90.75
2018-09-06T04:27:02.080Z,90.54
2018-09-06T04:28:02.069Z,90.54
2018-09-06T04:29:02.062Z,89.32
2018-09-06T04:30:02.082Z,89.32
2018-09-06T04:31:02.054Z,88.92
2018-09-06T04:32:02.061Z,89.53
2018-09-06T04:33:02.017Z,89.53
2018-09-06T04:34:02.011Z,89.63
2018-09-06T04:35:02.013Z,88.92
2018-09-06T04:36:02.023Z,89.48
2018-09-06T04:37:01.978Z,89.48
2018-09-06T04:38:02.007Z,88.57
2018-09-06T04:39:01.951Z,88.17
2018-09-06T04:40:01.954Z,88.37
2018-09-06T04:41:01.932Z,87.97
2018-09-06T04:42:01.918Z,88.07
2018-09-06T04:43:01.908Z,88.48
2018-09-06T04:44:01.930Z,88.42
2018-09-06T04:45:01.900Z,87.91
2018-09-06T04:46:01.875Z,88.11
2018-09-06T04:47:01.863Z,88.92
2018-09-06T04:48:01.853Z,88.31
2018-09-06T04:49:01.844Z,88.11
2018-09-06T04:50:02.020Z,88.11
2018-09-06T04:51:01.821Z,88.17
2018-09-06T04:52:01.808Z,87.87
2018-09-06T04:53:01.800Z,87.93
2018-09-06T04:54:01.787Z,87.56
2018-09-06T04:55:01.793Z,87.36
2018-09-06T04:56:01.780Z,87.56
2018-09-06T04:57:01.754Z,87.46
2018-09-06T04:58:01.744Z,87.56
2018-09-06T04:59:01.734Z,88.07
2018-09-06T05:00:01.737Z,87.36
2018-09-06T05:01:01.711Z,87.56
2018-09-06T05:02:01.714Z,86.85
2018-09-06T05:03:01.688Z,86.45
2018-09-06T05:04:01.680Z,86.71
2018-09-06T05:05:01.681Z,86.15
2018-09-06T05:06:01.656Z,86.15
2018-09-06T05:07:01.643Z,85.90
2018-09-06T05:08:01.659Z,85.10
2018-09-06T05:09:01.621Z,84.79
2018-09-06T05:10:01.631Z,85.16
2018-09-06T05:11:01.601Z,84.79
2018-09-06T05:12:01.589Z,85.19
2018-09-06T05:13:01.578Z,84.89
2018-09-06T05:14:01.593Z,85.30
2018-09-06T05:15:01.574Z,84.89
2018-09-06T05:16:01.545Z,85.50
2018-09-06T05:17:01.535Z,84.99
2018-09-06T05:18:01.523Z,85.50
2018-09-06T05:19:01.518Z,85.50
2018-09-06T05:20:01.542Z,85.50
2018-09-06T05:21:01.529Z,84.99
2018-09-06T05:22:01.557Z,85.10
2018-09-06T05:23:01.472Z,84.99
2018-09-06T05:24:01.458Z,84.99
2018-09-06T05:25:01.459Z,85.19
2018-09-06T05:26:01.507Z,84.55
2018-09-06T05:27:01.453Z,84.85
2018-09-06T05:28:01.415Z,84.85
2018-09-06T05:29:01.451Z,84.34
2018-09-06T05:30:01.393Z,84.55
2018-09-06T05:31:01.397Z,84.65
2018-09-06T05:32:01.374Z,84.65
2018-09-06T05:33:01.382Z,84.45
2018-09-06T05:34:01.389Z,84.55
2018-09-06T05:35:01.358Z,84.34
2018-09-06T05:36:01.354Z,84.55
2018-09-06T05:37:01.320Z,83.74
2018-09-06T05:38:01.326Z,83.84
2018-09-06T05:39:01.297Z,84.45
2018-09-06T05:40:01.312Z,84.14
2018-09-06T05:41:01.291Z,83.80
2018-09-06T05:42:01.266Z,83.84
2018-09-06T05:43:01.253Z,84.04
2018-09-06T05:44:01.244Z,84.14
2018-09-06T05:45:01.232Z,83.64
2018-09-06T05:46:01.256Z,84.00
2018-09-06T05:47:01.235Z,83.50
2018-09-06T05:48:01.201Z,83.90
2018-09-06T05:49:01.191Z,83.29
2018-09-06T05:50:01.180Z,83.60
2018-09-06T05:51:01.183Z,83.50
2018-09-06T05:52:01.158Z,83.50
2018-09-06T05:53:01.165Z,83.40
2018-09-06T05:54:01.136Z,84.34
2018-09-06T05:55:01.128Z,83.54
2018-09-06T05:56:01.131Z,84.04
2018-09-06T05:57:01.106Z,83.74
2018-09-06T05:58:01.125Z,83.44
2018-09-06T05:59:01.101Z,83.09
2018-09-06T06:00:01.133Z,83.05
2018-09-06T06:01:01.106Z,82.04
2018-09-06T06:02:01.056Z,82.55
2018-09-06T06:03:01.042Z,82.04
2018-09-06T06:04:01.031Z,82.35
2018-09-06T06:05:01.020Z,82.01
2018-09-06T06:06:01.033Z,81.20
2018-09-06T06:07:01.032Z,81.36
2018-09-06T06:08:00.986Z,80.76
2018-09-06T06:09:00.978Z,80.49
2018-09-06T06:10:00.967Z,80.15
2018-09-06T06:11:00.956Z,80.35
2018-09-06T06:12:00.961Z,81.02
2018-09-06T06:13:00.960Z,80.25
2018-09-06T06:14:00.948Z,80.21
2018-09-06T06:15:00.913Z,81.87
2018-09-06T06:16:00.987Z,81.76
2018-09-06T06:17:00.910Z,82.23
2018-09-06T06:18:00.879Z,80.74
2018-09-06T06:19:00.892Z,79.02
2018-09-06T06:20:00.918Z,76.87
2018-09-06T06:21:00.872Z,77.55
2018-09-06T06:22:00.851Z,78.72
2018-09-06T06:23:00.826Z,80.07
2018-09-06T06:24:00.818Z,81.32
2018-09-06T06:25:00.805Z,81.52
2018-09-06T06:26:00.836Z,81.89
2018-09-06T06:27:00.827Z,81.08
2018-09-06T06:28:00.805Z,81.51
2018-09-06T06:29:00.761Z,81.07
2018-09-06T06:30:00.753Z,79.56
2018-09-06T06:31:00.739Z,79.46
2018-09-06T06:32:00.743Z,79.16
2018-09-06T06:33:00.718Z,80.16
2018-09-06T06:34:00.765Z,79.86
2018-09-06T06:35:00.709Z,79.42
2018-09-06T06:36:00.684Z,78.47
2018-09-06T06:37:00.689Z,77.13
2018-09-06T06:38:00.662Z,77.36
2018-09-06T06:39:00.653Z,74.07
2018-09-06T06:40:00.641Z,73.47
2018-09-06T06:41:00.667Z,71.19
2018-09-06T06:42:00.633Z,69.32
2018-09-06T06:43:00.610Z,66.56
2018-09-06T06:44:00.598Z,67.13
2018-09-06T06:45:00.591Z,65.90
2018-09-06T06:46:00.577Z,64.77
2018-09-06T06:47:00.710Z,65.53
2018-09-06T06:48:00.556Z,63.11
2018-09-06T06:49:00.546Z,63.71
2018-09-06T06:50:00.533Z,63.98
2018-09-06T06:51:00.526Z,62.95
2018-09-06T06:52:00.526Z,60.56
2018-09-06T06:53:00.586Z,61.25
2018-09-06T06:54:00.510Z,61.83
2018-09-06T06:55:00.490Z,60.83
2018-09-06T06:56:00.528Z,59.44
2018-09-06T06:57:00.527Z,61.13
2018-09-06T06:58:00.460Z,62.13
2018-09-06T06:59:00.454Z,61.53
2018-09-06T07:00:00.448Z,62.26
2018-09-06T07:01:00.479Z,60.11
2018-09-06T07:02:00.433Z,60.21
2018-09-06T07:03:00.421Z,59.05
2018-09-06T07:04:00.381Z,58.36
2018-09-06T07:05:00.378Z,57.66
2018-09-06T07:06:00.475Z,57.86
2018-09-06T07:07:00.427Z,58.26
2018-09-06T07:08:00.354Z,57.83
2018-09-06T07:09:00.342Z,58.13
2018-09-06T07:10:00.365Z,57.24
2018-09-06T07:11:00.327Z,57.83
2018-09-06T07:12:00.316Z,58.03
2018-09-06T07:13:00.301Z,57.81
2018-09-06T07:14:00.295Z,57.70
2018-09-06T07:15:00.291Z,57.81
2018-09-06T07:16:00.258Z,58.41
2018-09-06T07:17:00.243Z,61.06
2018-09-06T07:18:00.257Z,60.43
2018-09-06T07:19:00.289Z,60.26
2018-09-06T07:20:00.225Z,61.61
2018-09-06T07:21:00.213Z,60.52
2018-09-06T07:22:00.208Z,62.94
2018-09-06T07:23:00.204Z,61.55
2018-09-06T07:24:00.190Z,62.77
2018-09-06T07:25:00.203Z,63.47
2018-09-06T07:26:00.156Z,60.79
2018-09-06T07:27:00.221Z,60.83
2018-09-06T07:28:00.152Z,60.90
2018-09-06T07:29:00.124Z,59.45
2018-09-06T07:30:00.113Z,58.90
2018-09-06T07:31:00.129Z,58.17
2018-09-06T07:32:00.148Z,59.11
2018-09-06T07:33:00.098Z,57.69
2018-09-06T07:34:00.071Z,55.78
2018-09-06T07:35:00.102Z,56.35
2018-09-06T07:36:00.044Z,55.16
2018-09-06T07:37:00.045Z,55.44
2018-09-06T07:38:00.040Z,57.45
2018-09-06T07:39:00.040Z,57.32
2018-09-06T07:40:00.031Z,57.20
2018-09-06T07:41:00.014Z,55.09
2018-09-06T07:42:00.023Z,56.28
2018-09-06T07:42:59.996Z,55.88
2018-09-06T07:43:59.995Z,53.01
2018-09-06T07:45:00.004Z,55.76
2018-09-06T07:45:59.942Z,53.55
2018-09-06T07:46:59.925Z,52.93
2018-09-06T07:48:00.347Z,53.23
2018-09-06T07:48:59.926Z,53.72
2018-09-06T07:49:59.937Z,53.28
2018-09-06T07:51:00.126Z,55.27
2018-09-06T07:51:59.900Z,57.43
2018-09-06T07:52:59.952Z,57.56
2018-09-06T07:53:59.852Z,57.83
2018-09-06T07:54:59.853Z,59.03
2018-09-06T07:55:59.865Z,57.89
2018-09-06T07:56:59.844Z,58.34
2018-09-06T07:57:59.861Z,57.59
2018-09-06T07:58:59.810Z,58.75
2018-09-06T07:59:59.782Z,59.09
2018-09-06T08:00:59.788Z,55.42
2018-09-06T08:01:59.779Z,56.46
2018-09-06T08:02:59.761Z,55.96
2018-09-06T08:03:59.761Z,55.44
2018-09-06T08:04:59.779Z,57.06
2018-09-06T08:05:59.755Z,55.82
2018-09-06T08:06:59.723Z,57.28
2018-09-06T08:07:59.696Z,58.77
2018-09-06T08:08:59.704Z,59.18
2018-09-06T08:09:59.683Z,55.76
2018-09-06T08:10:59.710Z,54.61
2018-09-06T08:11:59.694Z,53.73
2018-09-06T08:12:59.665Z,54.72
2018-09-06T08:13:59.740Z,54.77
2018-09-06T08:14:59.620Z,56.99
2018-09-06T08:15:59.616Z,53.00
2018-09-06T08:16:59.645Z,52.06
2018-09-06T08:17:59.597Z,50.38
2018-09-06T08:18:59.728Z,51.10
2018-09-06T08:19:59.579Z,52.22
2018-09-06T08:20:59.593Z,53.30
2018-09-06T08:21:59.554Z,52.29
2018-09-06T08:22:59.550Z,50.81
2018-09-06T08:23:59.548Z,52.24
2018-09-06T08:24:59.523Z,52.51
2018-09-06T08:25:59.521Z,49.72
2018-09-06T08:26:59.517Z,49.48
2018-09-06T08:27:59.485Z,51.37
2018-09-06T08:28:59.499Z,49.85
2018-09-06T08:29:59.515Z,50.44
2018-09-06T08:30:59.585Z,49.60
2018-09-06T08:31:59.442Z,49.37
2018-09-06T08:32:59.487Z,52.91
2018-09-06T08:33:59.438Z,53.18
2018-09-06T08:34:59.421Z,56.73
2018-09-06T08:35:59.405Z,56.06
2018-09-06T08:36:59.553Z,59.59
2018-09-06T08:37:59.383Z,60.71
2018-09-06T08:38:59.452Z,61.24
2018-09-06T08:39:59.371Z,65.22
2018-09-06T08:40:59.359Z,62.56
2018-09-06T08:41:59.339Z,61.17
2018-09-06T08:42:59.348Z,60.08
2018-09-06T08:43:59.320Z,62.46
2018-09-06T08:44:59.326Z,64.58
2018-09-06T08:45:59.332Z,63.29
2018-09-06T08:46:59.319Z,63.19
2018-09-06T08:47:59.307Z,60.47
2018-09-06T08:48:59.270Z,57.90
2018-09-06T08:49:59.267Z,57.25
2018-09-06T08:50:59.246Z,56.30
2018-09-06T08:51:59.267Z,56.28
2018-09-06T08:52:59.268Z,55.04
2018-09-06T08:53:59.211Z,53.42
2018-09-06T08:54:59.220Z,51.28
2018-09-06T08:55:59.330Z,49.94
2018-09-06T08:56:59.181Z,53.89
2018-09-06T08:57:59.169Z,48.56
2018-09-06T08:58:59.198Z,52.24
2018-09-06T08:59:59.184Z,51.20
2018-09-06T09:00:59.141Z,52.64
2018-09-06T09:01:59.133Z,52.93
2018-09-06T09:02:59.257Z,55.41
2018-09-06T09:03:59.144Z,52.66
2018-09-06T09:04:59.127Z,51.15
2018-09-06T09:05:59.159Z,50.31
2018-09-06T09:06:59.086Z,48.98
2018-09-06T09:07:59.075Z,50.34
2018-09-06T09:08:59.056Z,48.17
2018-09-06T09:09:59.070Z,46.81
2018-09-06T09:10:59.046Z,51.37
2018-09-06T09:11:59.118Z,48.17
2018-09-06T09:12:59.038Z,48.76
2018-09-06T09:13:59.002Z,46.84
2018-09-06T09:14:59.116Z,47.14
2018-09-06T09:15:58.994Z,45.63
2018-09-06T09:16:58.985Z,48.02
2018-09-06T09:17:58.997Z,48.34
2018-09-06T09:18:58.956Z,50.09
2018-09-06T09:19:59.025Z,47.23
2018-09-06T09:20:58.940Z,51.94
2018-09-06T09:21:59.081Z,46.42
2018-09-06T09:22:58.942Z,46.03
2018-09-06T09:23:58.917Z,47.23
2018-09-06T09:24:58.902Z,51.69
2018-09-06T09:25:58.891Z,47.18
2018-09-06T09:26:58.864Z,50.14
2018-09-06T09:27:58.905Z,50.12
2018-09-06T09:28:58.845Z,50.19
2018-09-06T09:29:58.861Z,48.66
2018-09-06T09:30:58.829Z,47.01
2018-09-06T09:31:58.826Z,46.30
2018-09-06T09:32:58.806Z,50.02
2018-09-06T09:33:58.804Z,50.54
2018-09-06T09:34:58.806Z,48.54
2018-09-06T09:35:58.865Z,48.74
2018-09-06T09:36:58.765Z,48.03
2018-09-06T09:37:58.756Z,44.95
2018-09-06T09:38:58.759Z,45.96
2018-09-06T09:39:58.759Z,46.97
2018-09-06T09:40:58.736Z,45.17
2018-09-06T09:41:58.721Z,46.06
2018-09-06T09:42:58.701Z,44.70
2018-09-06T09:43:58.685Z,43.27
2018-09-06T09:44:58.696Z,45.87
2018-09-06T09:47:57.958Z,47.30
2018-09-06T09:48:57.944Z,47.87
2018-09-06T09:49:57.938Z,45.20
2018-09-06T09:50:57.941Z,46.93
2018-09-06T09:51:57.917Z,49.15
2018-09-06T09:52:57.937Z,48.33
2018-09-06T09:53:57.929Z,48.55
2018-09-06T09:54:57.891Z,50.68
2018-09-06T09:55:57.896Z,50.83
2018-09-06T09:56:57.891Z,50.76
2018-09-06T09:57:57.861Z,46.44
2018-09-06T09:58:57.852Z,46.30
2018-09-06T09:59:57.922Z,47.16
2018-09-06T10:00:57.878Z,48.32
2018-09-06T10:01:57.818Z,44.24
2018-09-06T10:02:57.810Z,45.15
2018-09-06T10:03:57.795Z,47.88
2018-09-06T10:04:57.791Z,45.92
2018-09-06T10:05:57.807Z,43.46
2018-09-06T10:06:57.785Z,44.54
2018-09-06T10:07:57.759Z,43.77
2018-09-06T10:08:57.745Z,42.67
2018-09-06T10:09:57.736Z,46.97
2018-09-06T10:10:57.736Z,45.75
2018-09-06T10:11:57.712Z,46.58
2018-09-06T10:12:57.699Z,45.28
2018-09-06T10:13:57.695Z,41.84
2018-09-06T10:14:57.682Z,46.61
2018-09-06T10:15:57.705Z,40.82
2018-09-06T10:16:57.673Z,40.72
2018-09-06T10:17:57.667Z,42.25
2018-09-06T10:18:57.657Z,42.51
2018-09-06T10:19:57.636Z,41.88
2018-09-06T10:20:57.645Z,42.27
2018-09-06T10:21:57.631Z,41.39
2018-09-06T10:22:57.635Z,41.78
2018-09-06T10:23:57.602Z,42.98
2018-09-06T10:24:57.575Z,44.10
2018-09-06T10:25:57.568Z,41.86
2018-09-06T10:26:57.597Z,43.08
2018-09-06T10:27:57.557Z,45.96
2018-09-06T10:28:57.603Z,45.17
2018-09-06T10:29:57.526Z,44.82
2018-09-06T10:30:57.523Z,45.06
2018-09-06T10:31:57.539Z,47.80
2018-09-06T10:32:57.506Z,45.02
2018-09-06T10:33:57.489Z,45.09
2018-09-06T10:34:57.473Z,46.06
2018-09-06T10:35:57.487Z,45.05
2018-09-06T10:36:57.485Z,45.00
2018-09-06T10:37:57.452Z,48.57
2018-09-06T10:38:57.453Z,50.46
2018-09-06T10:39:57.494Z,47.78
2018-09-06T10:40:57.417Z,46.94
2018-09-06T10:41:57.437Z,45.60
2018-09-06T10:42:57.407Z,46.53
2018-09-06T10:43:57.408Z,48.63
2018-09-06T10:44:57.461Z,49.45
2018-09-06T10:45:57.359Z,48.78
2018-09-06T10:46:57.374Z,47.38
2018-09-06T10:47:57.352Z,47.50
2018-09-06T10:48:57.328Z,46.34
2018-09-06T10:49:57.322Z,45.24
2018-09-06T10:50:57.308Z,48.29
2018-09-06T10:51:57.336Z,43.62
2018-09-06T10:52:57.353Z,46.75
2018-09-06T10:53:57.277Z,47.09
2018-09-06T10:54:57.269Z,44.98
2018-09-06T10:55:57.268Z,46.09
2018-09-06T10:56:57.281Z,45.92
2018-09-06T10:57:57.240Z,44.54
2018-09-06T10:58:57.230Z,46.43
2018-09-06T10:59:57.218Z,45.35
2018-09-06T11:00:57.205Z,45.92
2018-09-06T11:01:57.215Z,44.81
2018-09-06T11:02:57.190Z,45.89
2018-09-06T11:03:57.177Z,43.12
2018-09-06T11:04:57.163Z,44.89
2018-09-06T11:05:57.157Z,45.79
2018-09-06T11:06:57.174Z,42.28
2018-09-06T11:07:57.183Z,46.21
2018-09-06T11:08:57.124Z,45.05
2018-09-06T11:09:57.124Z,49.58
2018-09-06T11:10:57.268Z,49.33
2018-09-06T11:11:57.134Z,49.48
2018-09-06T11:12:57.094Z,44.71
2018-09-06T11:13:57.091Z,49.65
2018-09-06T11:14:57.087Z,46.15
2018-09-06T11:15:57.065Z,44.11
2018-09-06T11:16:57.063Z,48.17
2018-09-06T11:17:57.083Z,49.52
2018-09-06T11:18:57.042Z,45.41
2018-09-06T11:19:57.022Z,46.91
2018-09-06T11:20:57.187Z,48.32
2018-09-06T11:21:57.211Z,49.43
2018-09-06T11:22:56.986Z,47.99
2018-09-06T11:23:57.150Z,51.18
2018-09-06T11:24:56.972Z,49.49
2018-09-06T11:25:56.966Z,49.94
2018-09-06T11:26:57.029Z,51.35
2018-09-06T11:27:56.981Z,52.76
2018-09-06T11:28:56.923Z,52.98
2018-09-06T11:29:56.916Z,53.41
2018-09-06T11:30:56.913Z,52.91
2018-09-06T11:31:56.904Z,53.31
2018-09-06T11:32:56.898Z,54.02
2018-09-06T11:33:56.884Z,55.02
2018-09-06T11:34:56.859Z,55.11
2018-09-06T11:35:56.852Z,54.02
2018-09-06T11:36:56.850Z,51.67
2018-09-06T11:37:56.864Z,55.94
2018-09-06T11:38:56.825Z,55.94
2018-09-06T11:39:56.873Z,56.73
2018-09-06T11:40:56.797Z,55.15
2018-09-06T11:41:56.787Z,57.29
2018-09-06T11:42:56.795Z,54.72
2018-09-06T11:43:56.807Z,54.42
2018-09-06T11:44:56.755Z,57.42
2018-09-06T11:45:56.748Z,52.47
2018-09-06T11:46:56.887Z,57.03
2018-09-06T11:47:56.822Z,56.13
2018-09-06T11:48:56.731Z,54.85
2018-09-06T11:49:56.711Z,54.05
2018-09-06T11:50:56.693Z,54.05
2018-09-06T11:51:56.695Z,55.11
2018-09-06T11:52:56.734Z,53.73
2018-09-06T11:53:56.673Z,56.77
2018-09-06T11:54:56.653Z,55.06
2018-09-06T11:55:56.644Z,51.89
2018-09-06T11:56:56.639Z,53.58
2018-09-06T11:57:56.643Z,50.31
2018-09-06T11:58:56.669Z,53.08
2018-09-06T11:59:56.600Z,53.16
2018-09-06T12:00:56.596Z,53.92
2018-09-06T12:01:56.608Z,51.84
2018-09-06T12:02:56.689Z,54.88
2018-09-06T12:03:56.582Z,53.53
2018-09-06T12:04:56.557Z,55.83
2018-09-06T12:05:56.670Z,52.39
2018-09-06T12:06:56.532Z,52.26
2018-09-06T12:07:56.522Z,53.16
2018-09-06T12:08:56.535Z,53.65
2018-09-06T12:09:56.519Z,55.80
2018-09-06T12:10:56.487Z,52.76
2018-09-06T12:11:56.473Z,54.74
2018-09-06T12:12:56.520Z,54.86
2018-09-06T12:13:56.469Z,52.39
2018-09-06T12:14:56.445Z,53.70
2018-09-06T12:15:56.450Z,51.84
2018-09-06T12:16:56.450Z,53.56
2018-09-06T12:17:56.407Z,53.66
2018-09-06T12:18:56.439Z,56.93
2018-09-06T12:19:56.400Z,53.75
2018-09-06T12:20:56.415Z,54.25
2018-09-06T12:21:56.366Z,55.02
2018-09-06T12:22:56.376Z,53.13
2018-09-06T12:23:56.372Z,53.53
2018-09-06T12:24:56.338Z,53.43
2018-09-06T12:25:56.329Z,54.13
2018-09-06T12:26:56.316Z,53.50
2018-09-06T12:27:56.322Z,55.78
2018-09-06T12:28:56.314Z,54.82
2018-09-06T12:29:56.288Z,53.43
2018-09-06T12:30:56.277Z,58.65
2018-09-06T12:31:56.275Z,55.39
2018-09-06T12:32:56.254Z,53.60
2018-09-06T12:33:56.279Z,54.05
2018-09-06T12:34:56.243Z,56.04
2018-09-06T12:35:56.246Z,53.78
2018-09-06T12:36:56.221Z,54.08
2018-09-06T12:37:56.205Z,55.04
2018-09-06T12:38:56.271Z,53.98
2018-09-06T12:39:56.199Z,54.08
2018-09-06T12:40:56.178Z,55.87
2018-09-06T12:41:56.187Z,55.04
2018-09-06T12:42:56.148Z,58.91
2018-09-06T12:43:56.144Z,53.50
2018-09-06T12:44:56.157Z,55.19
2018-09-06T12:45:56.149Z,53.97
2018-09-06T12:46:56.106Z,54.07
2018-09-06T12:47:56.343Z,55.56
2018-09-06T12:48:56.099Z,53.48
2018-09-06T12:49:56.097Z,53.41
2018-09-06T12:50:56.075Z,54.96
2018-09-06T12:51:56.070Z,52.19
2018-09-06T12:52:56.050Z,53.97
2018-09-06T12:53:56.098Z,56.72